Storm Events Database

Event Details

Event Thunderstorm Wind
Magnitude 50 kts.
State MINNESOTA
County/Area LAKE OF THE WOODS
WFO FGF
Report Source ASOS
NCDC Data Source CSV
Begin Date 2008-07-11 07:10:00.0 CST-6
Begin Location 0N (BDE)BAUDETTE INTL A
Begin Lat/Lon 48.72/-94.6
End Date 2008-07-11 07:10:00.0 CST-6
Deaths Direct/Indirect 0/0 (fatality details below, when available...)
Injuries Direct/Indirect 0/0
Property Damage 20.00K
Crop Damage
Episode Narrative An area of surface low pressure near Bismarck (ND) on the morning of the 11th moved to near Grand Forks (ND) by early afternoon, then moved to near Winnipeg in the evening. As it did so, a warm front lifted north ahead of the low and a cold front trailed behind the low. Thunderstorms formed along both boundaries.
Event Narrative The wind gust was measured by the Baudette Airport ASOS.


     ‚Äč



All events for this episode:

Location County/Zone St. Date Time T.Z. Type Mag Dth Inj PrD CrD
Totals: 0 0 855.00K 580.00K
WARROAD ROSEAU CO. MN 07/11/2008 06:10 CST-6 Hail 0.75 in. 0 0 0.00K 0.00K
(BDE)BAUDETTE INTL A LAKE OF THE WOODS CO. MN 07/11/2008 07:10 CST-6 Thunderstorm Wind 50 kts. EG 0 0 20.00K 0.00K
BAUDETTE AFS LAKE OF THE WOODS CO. MN 07/11/2008 07:39 CST-6 Hail 0.75 in. 0 0 0.00K 0.00K
BAUDETTE AFS LAKE OF THE WOODS CO. MN 07/11/2008 07:40 CST-6 Thunderstorm Wind 65 kts. EG 0 0 10.00K 10.00K
ROSEWOOD MARSHALL CO. MN 07/11/2008 08:30 CST-6 Hail 0.75 in. 0 0 0.00K 0.00K
FERTILE POLK CO. MN 07/11/2008 14:10 CST-6 Hail 0.88 in. 0 0 0.00K 0.00K
TWIN VLY NORMAN CO. MN 07/11/2008 14:10 CST-6 Funnel Cloud 0 0 0.00K 0.00K
VIKING MARSHALL CO. MN 07/11/2008 14:25 CST-6 Tornado EF0 0 0 0.00K 0.00K
STRANDQUIST MARSHALL CO. MN 07/11/2008 14:35 CST-6 Hail 1.00 in. 0 0 0.00K 0.00K
WAUBUN MAHNOMEN CO. MN 07/11/2008 14:45 CST-6 Tornado EF0 0 0 5.00K 5.00K
DETROIT LAKES BECKER CO. MN 07/11/2008 14:49 CST-6 Hail 0.88 in. 0 0 0.00K 0.00K
FRAZEE BECKER CO. MN 07/11/2008 14:52 CST-6 Hail 1.00 in. 0 0 0.00K 0.00K
FRAZEE BECKER CO. MN 07/11/2008 14:53 CST-6 Hail 0.75 in. 0 0 0.00K 0.00K
VERGAS OTTER TAIL CO. MN 07/11/2008 14:55 CST-6 Tornado EF0 0 0 5.00K 5.00K
BEAULIEU MAHNOMEN CO. MN 07/11/2008 15:00 CST-6 Tornado EF2 0 0 500.00K 100.00K
FRAZEE BECKER CO. MN 07/11/2008 15:05 CST-6 Funnel Cloud 0 0 0.00K 0.00K
FRAZEE BECKER CO. MN 07/11/2008 15:12 CST-6 Tornado EF0 0 0 5.00K 20.00K
GATZKE MARSHALL CO. MN 07/11/2008 15:15 CST-6 Thunderstorm Wind 55 kts. EG 0 0 5.00K 50.00K
LENGBY POLK CO. MN 07/11/2008 15:15 CST-6 Hail 1.00 in. 0 0 0.00K 0.00K
LUCE OTTER TAIL CO. MN 07/11/2008 15:15 CST-6 Tornado EF1 0 0 200.00K 100.00K
EVERGREEN BECKER CO. MN 07/11/2008 15:20 CST-6 Hail 0.75 in. 0 0 0.00K 0.00K
WOLF LAKE BECKER CO. MN 07/11/2008 15:25 CST-6 Hail 1.50 in. 0 0 20.00K 200.00K
BUTLER OTTER TAIL CO. MN 07/11/2008 15:26 CST-6 Funnel Cloud 0 0 0.00K 0.00K
SWIFT ROSEAU CO. MN 07/11/2008 15:40 CST-6 Hail 1.00 in. 0 0 5.00K 50.00K
LYMAN OTTER TAIL CO. MN 07/11/2008 15:43 CST-6 Tornado EF1 0 0 40.00K 20.00K
LYMAN OTTER TAIL CO. MN 07/11/2008 15:50 CST-6 Hail 0.75 in. 0 0 0.00K 0.00K
MENAHGA WADENA CO. MN 07/11/2008 16:02 CST-6 Hail 1.00 in. 0 0 0.00K 0.00K
CARMEL BELTRAMI CO. MN 07/11/2008 16:20 CST-6 Hail 0.75 in. 0 0 0.00K 0.00K
NEW YORK MILLS OTTER TAIL CO. MN 07/11/2008 16:21 CST-6 Hail 0.75 in. 0 0 0.00K 0.00K
LAVINIA BELTRAMI CO. MN 07/11/2008 17:00 CST-6 Thunderstorm Wind 60 kts. EG 0 0 40.00K 20.00K
Totals: 0 0 855.00K 580.00K